sensor_id;sensor_type;location;lat;lon;timestamp;P1;durP1;ratioP1;P2;durP2;ratioP2
75189;SDS011;69198;44.694;37.790;2024-03-23T00:54:18;8.82;;;2.38;;
75189;SDS011;69198;44.694;37.790;2024-03-23T00:55:19;7.43;;;2.00;;
75189;SDS011;69198;44.694;37.790;2024-03-23T00:56:20;8.43;;;2.47;;
75189;SDS011;69198;44.694;37.790;2024-03-23T00:57:21;7.17;;;1.97;;
75189;SDS011;69198;44.694;37.790;2024-03-23T00:58:25;8.02;;;2.05;;
75189;SDS011;69198;44.694;37.790;2024-03-23T00:59:26;10.07;;;2.35;;
75189;SDS011;69198;44.694;37.790;2024-03-23T01:00:29;10.00;;;2.75;;
75189;SDS011;69198;44.694;37.790;2024-03-23T01:01:30;7.95;;;2.10;;
75189;SDS011;69198;44.694;37.790;2024-03-23T01:02:31;7.43;;;1.90;;
75189;SDS011;69198;44.694;37.790;2024-03-23T01:03:32;9.15;;;2.08;;
75189;SDS011;69198;44.694;37.790;2024-03-23T01:04:33;8.13;;;2.20;;
75189;SDS011;69198;44.694;37.790;2024-03-23T01:05:34;8.55;;;2.70;;
75189;SDS011;69198;44.694;37.790;2024-03-23T01:06:35;11.60;;;3.20;;
75189;SDS011;69198;44.694;37.790;2024-03-23T01:07:36;8.25;;;2.95;;
75189;SDS011;69198;44.694;37.790;2024-03-23T01:08:37;12.07;;;2.97;;
75189;SDS011;69198;44.694;37.790;2024-03-23T01:09:38;9.40;;;2.75;;
75189;SDS011;69198;44.694;37.790;2024-03-23T01:10:39;9.13;;;2.63;;
75189;SDS011;69198;44.694;37.790;2024-03-23T01:11:43;8.25;;;2.22;;
75189;SDS011;69198;44.694;37.790;2024-03-23T01:12:44;10.20;;;3.30;;
75189;SDS011;69198;44.694;37.790;2024-03-23T01:13:45;10.93;;;3.13;;
75189;SDS011;69198;44.694;37.790;2024-03-23T01:14:46;9.00;;;2.38;;
75189;SDS011;69198;44.694;37.790;2024-03-23T01:15:50;9.80;;;2.95;;
75189;SDS011;69198;44.694;37.790;2024-03-23T01:16:52;9.55;;;2.58;;
75189;SDS011;69198;44.694;37.790;2024-03-23T01:17:53;8.30;;;2.78;;
75189;SDS011;69198;44.694;37.790;2024-03-23T01:18:54;10.43;;;2.70;;
75189;SDS011;69198;44.694;37.790;2024-03-23T01:19:55;11.15;;;3.25;;
75189;SDS011;69198;44.694;37.790;2024-03-23T01:20:56;9.60;;;2.87;;
75189;SDS011;69198;44.694;37.790;2024-03-23T01:21:57;9.55;;;2.80;;
75189;SDS011;69198;44.694;37.790;2024-03-23T01:22:58;9.75;;;2.72;;
75189;SDS011;69198;44.694;37.790;2024-03-23T01:24:01;8.27;;;2.70;;
75189;SDS011;69198;44.694;37.790;2024-03-23T01:25:03;9.70;;;2.30;;
75189;SDS011;69198;44.694;37.790;2024-03-23T01:26:04;8.73;;;2.60;;
75189;SDS011;69198;44.694;37.790;2024-03-23T01:27:08;9.02;;;2.38;;
75189;SDS011;69198;44.694;37.790;2024-03-23T01:28:09;10.17;;;2.83;;
75189;SDS011;69198;44.694;37.790;2024-03-23T01:29:11;9.57;;;2.72;;
75189;SDS011;69198;44.694;37.790;2024-03-23T01:30:12;10.20;;;2.80;;
75189;SDS011;69198;44.694;37.790;2024-03-23T01:31:14;8.48;;;2.10;;
75189;SDS011;69198;44.694;37.790;2024-03-23T01:32:16;10.73;;;2.95;;
75189;SDS011;69198;44.694;37.790;2024-03-23T01:33:17;8.82;;;2.65;;
75189;SDS011;69198;44.694;37.790;2024-03-23T01:34:18;8.10;;;2.30;;
75189;SDS011;69198;44.694;37.790;2024-03-23T01:35:21;9.73;;;2.53;;
75189;SDS011;69198;44.694;37.790;2024-03-23T01:36:22;9.60;;;2.63;;
75189;SDS011;69198;44.694;37.790;2024-03-23T01:37:24;9.30;;;2.42;;
75189;SDS011;69198;44.694;37.790;2024-03-23T01:38:25;8.37;;;2.57;;
75189;SDS011;69198;44.694;37.790;2024-03-23T01:39:26;10.50;;;2.20;;
75189;SDS011;69198;44.694;37.790;2024-03-23T01:40:27;8.48;;;2.22;;
75189;SDS011;69198;44.694;37.790;2024-03-23T01:41:33;8.90;;;2.30;;
75189;SDS011;69198;44.694;37.790;2024-03-23T01:42:34;10.55;;;2.42;;
75189;SDS011;69198;44.694;37.790;2024-03-23T01:43:38;8.43;;;2.50;;
75189;SDS011;69198;44.694;37.790;2024-03-23T01:44:39;8.10;;;1.90;;
75189;SDS011;69198;44.694;37.790;2024-03-23T01:45:40;6.88;;;1.73;;
75189;SDS011;69198;44.694;37.790;2024-03-23T01:46:41;7.88;;;2.00;;
75189;SDS011;69198;44.694;37.790;2024-03-23T01:47:42;7.43;;;1.80;;
75189;SDS011;69198;44.694;37.790;2024-03-23T01:48:44;6.75;;;1.75;;
75189;SDS011;69198;44.694;37.790;2024-03-23T01:49:46;8.50;;;1.80;;
75189;SDS011;69198;44.694;37.790;2024-03-23T01:50:48;7.80;;;2.20;;
75189;SDS011;69198;44.694;37.790;2024-03-23T01:51:49;7.20;;;2.03;;
75189;SDS011;69198;44.694;37.790;2024-03-23T01:52:50;8.07;;;2.17;;
75189;SDS011;69198;44.694;37.790;2024-03-23T01:53:51;9.45;;;2.55;;
75189;SDS011;69198;44.694;37.790;2024-03-23T01:54:54;8.57;;;1.98;;
75189;SDS011;69198;44.694;37.790;2024-03-23T01:55:55;8.18;;;2.05;;
75189;SDS011;69198;44.694;37.790;2024-03-23T01:56:58;6.10;;;1.90;;
75189;SDS011;69198;44.694;37.790;2024-03-23T01:58:00;9.10;;;2.10;;
75189;SDS011;69198;44.694;37.790;2024-03-23T01:59:05;8.13;;;1.80;;
75189;SDS011;69198;44.694;37.790;2024-03-23T02:00:09;7.68;;;1.77;;
75189;SDS011;69198;44.694;37.790;2024-03-23T02:01:15;6.75;;;1.63;;
75189;SDS011;69198;44.694;37.790;2024-03-23T02:02:16;8.35;;;2.08;;
75189;SDS011;69198;44.694;37.790;2024-03-23T02:03:22;7.68;;;2.20;;
75189;SDS011;69198;44.694;37.790;2024-03-23T02:04:27;7.88;;;2.00;;
75189;SDS011;69198;44.694;37.790;2024-03-23T02:05:27;5.60;;;1.50;;
75189;SDS011;69198;44.694;37.790;2024-03-23T02:06:29;7.77;;;1.70;;
75189;SDS011;69198;44.694;37.790;2024-03-23T02:07:33;6.80;;;1.63;;
75189;SDS011;69198;44.694;37.790;2024-03-23T02:08:35;6.22;;;1.45;;
75189;SDS011;69198;44.694;37.790;2024-03-23T02:09:37;5.47;;;1.30;;
75189;SDS011;69198;44.694;37.790;2024-03-23T02:10:38;7.15;;;1.75;;
75189;SDS011;69198;44.694;37.790;2024-03-23T02:11:39;6.70;;;1.98;;
75189;SDS011;69198;44.694;37.790;2024-03-23T02:12:40;5.85;;;1.30;;
75189;SDS011;69198;44.694;37.790;2024-03-23T02:13:44;7.50;;;1.58;;
75189;SDS011;69198;44.694;37.790;2024-03-23T02:14:45;6.35;;;1.35;;
75189;SDS011;69198;44.694;37.790;2024-03-23T02:15:46;7.20;;;2.00;;
75189;SDS011;69198;44.694;37.790;2024-03-23T02:16:50;6.35;;;1.38;;
75189;SDS011;69198;44.694;37.790;2024-03-23T02:17:51;7.38;;;1.83;;
75189;SDS011;69198;44.694;37.790;2024-03-23T02:18:52;6.88;;;1.40;;
75189;SDS011;69198;44.694;37.790;2024-03-23T02:19:53;6.53;;;1.45;;
75189;SDS011;69198;44.694;37.790;2024-03-23T02:20:54;5.63;;;1.30;;
75189;SDS011;69198;44.694;37.790;2024-03-23T02:21:54;7.10;;;1.85;;
75189;SDS011;69198;44.694;37.790;2024-03-23T02:22:55;6.97;;;1.73;;
75189;SDS011;69198;44.694;37.790;2024-03-23T02:23:56;7.22;;;1.70;;
75189;SDS011;69198;44.694;37.790;2024-03-23T02:25:02;6.78;;;1.60;;
75189;SDS011;69198;44.694;37.790;2024-03-23T02:26:06;8.10;;;1.42;;
75189;SDS011;69198;44.694;37.790;2024-03-23T02:27:07;8.65;;;2.22;;
75189;SDS011;69198;44.694;37.790;2024-03-23T02:28:08;6.97;;;1.38;;
75189;SDS011;69198;44.694;37.790;2024-03-23T02:29:09;7.15;;;1.73;;
75189;SDS011;69198;44.694;37.790;2024-03-23T02:30:11;7.37;;;1.90;;
75189;SDS011;69198;44.694;37.790;2024-03-23T02:31:12;8.98;;;1.40;;
75189;SDS011;69198;44.694;37.790;2024-03-23T02:32:13;6.88;;;1.83;;
75189;SDS011;69198;44.694;37.790;2024-03-23T02:33:14;9.65;;;2.47;;
75189;SDS011;69198;44.694;37.790;2024-03-23T02:34:15;7.38;;;1.85;;
75189;SDS011;69198;44.694;37.790;2024-03-23T02:35:17;10.00;;;2.28;;
75189;SDS011;69198;44.694;37.790;2024-03-23T02:36:18;9.95;;;1.88;;
75189;SDS011;69198;44.694;37.790;2024-03-23T02:37:21;7.63;;;2.30;;
75189;SDS011;69198;44.694;37.790;2024-03-23T02:38:22;8.98;;;2.17;;
75189;SDS011;69198;44.694;37.790;2024-03-23T02:39:26;10.57;;;2.58;;
75189;SDS011;69198;44.694;37.790;2024-03-23T02:40:27;7.40;;;1.98;;
75189;SDS011;69198;44.694;37.790;2024-03-23T02:41:31;8.10;;;1.90;;
75189;SDS011;69198;44.694;37.790;2024-03-23T02:42:32;8.18;;;2.22;;
75189;SDS011;69198;44.694;37.790;2024-03-23T02:43:33;9.75;;;2.00;;
75189;SDS011;69198;44.694;37.790;2024-03-23T02:44:34;8.85;;;2.13;;
75189;SDS011;69198;44.694;37.790;2024-03-23T02:45:35;10.07;;;2.40;;
75189;SDS011;69198;44.694;37.790;2024-03-23T02:46:38;9.17;;;2.10;;
75189;SDS011;69198;44.694;37.790;2024-03-23T02:47:40;7.88;;;2.20;;
75189;SDS011;69198;44.694;37.790;2024-03-23T02:48:44;7.47;;;2.28;;
75189;SDS011;69198;44.694;37.790;2024-03-23T02:49:45;7.18;;;1.80;;
75189;SDS011;69198;44.694;37.790;2024-03-23T02:50:46;8.07;;;1.90;;
75189;SDS011;69198;44.694;37.790;2024-03-23T02:51:50;6.97;;;1.92;;
75189;SDS011;69198;44.694;37.790;2024-03-23T02:52:51;8.10;;;2.00;;
75189;SDS011;69198;44.694;37.790;2024-03-23T02:53:52;8.55;;;1.60;;
75189;SDS011;69198;44.694;37.790;2024-03-23T02:54:53;7.30;;;2.17;;
75189;SDS011;69198;44.694;37.790;2024-03-23T02:55:54;7.78;;;1.98;;
75189;SDS011;69198;44.694;37.790;2024-03-23T02:56:57;7.32;;;1.85;;
75189;SDS011;69198;44.694;37.790;2024-03-23T02:58:01;7.90;;;2.00;;
75189;SDS011;69198;44.694;37.790;2024-03-23T02:59:02;8.38;;;1.90;;
75189;SDS011;69198;44.694;37.790;2024-03-23T03:00:04;9.38;;;2.17;;
75189;SDS011;69198;44.694;37.790;2024-03-23T03:01:06;7.70;;;1.80;;
75189;SDS011;69198;44.694;37.790;2024-03-23T03:02:07;7.25;;;1.85;;
75189;SDS011;69198;44.694;37.790;2024-03-23T03:03:08;8.97;;;2.23;;
75189;SDS011;69198;44.694;37.790;2024-03-23T03:04:09;9.00;;;2.05;;
75189;SDS011;69198;44.694;37.790;2024-03-23T03:05:10;5.57;;;1.15;;
75189;SDS011;69198;44.694;37.790;2024-03-23T03:06:22;8.30;;;1.85;;
75189;SDS011;69198;44.694;37.790;2024-03-23T03:07:26;7.68;;;2.00;;
75189;SDS011;69198;44.694;37.790;2024-03-23T03:08:27;7.38;;;1.60;;
75189;SDS011;69198;44.694;37.790;2024-03-23T03:09:28;8.07;;;2.40;;
75189;SDS011;69198;44.694;37.790;2024-03-23T03:10:32;7.75;;;2.17;;
75189;SDS011;69198;44.694;37.790;2024-03-23T03:11:35;7.15;;;1.80;;
75189;SDS011;69198;44.694;37.790;2024-03-23T03:12:36;8.53;;;2.10;;
75189;SDS011;69198;44.694;37.790;2024-03-23T03:13:38;9.50;;;2.23;;
75189;SDS011;69198;44.694;37.790;2024-03-23T03:14:39;8.40;;;2.08;;
75189;SDS011;69198;44.694;37.790;2024-03-23T03:15:43;8.68;;;2.47;;
75189;SDS011;69198;44.694;37.790;2024-03-23T03:16:44;8.15;;;2.10;;
75189;SDS011;69198;44.694;37.790;2024-03-23T03:17:45;9.45;;;2.33;;
75189;SDS011;69198;44.694;37.790;2024-03-23T03:18:46;10.48;;;2.30;;
75189;SDS011;69198;44.694;37.790;2024-03-23T03:19:57;10.77;;;2.45;;
75189;SDS011;69198;44.694;37.790;2024-03-23T03:20:58;7.80;;;2.33;;
75189;SDS011;69198;44.694;37.790;2024-03-23T03:22:02;7.82;;;2.28;;
75189;SDS011;69198;44.694;37.790;2024-03-23T03:23:05;7.07;;;1.88;;
75189;SDS011;69198;44.694;37.790;2024-03-23T03:24:06;9.90;;;2.88;;
75189;SDS011;69198;44.694;37.790;2024-03-23T03:25:07;10.10;;;2.33;;
75189;SDS011;69198;44.694;37.790;2024-03-23T03:26:08;10.95;;;2.17;;
75189;SDS011;69198;44.694;37.790;2024-03-23T03:27:09;8.90;;;2.30;;
75189;SDS011;69198;44.694;37.790;2024-03-23T03:28:10;9.32;;;2.42;;
75189;SDS011;69198;44.694;37.790;2024-03-23T03:29:11;6.77;;;1.83;;
75189;SDS011;69198;44.694;37.790;2024-03-23T03:30:12;8.13;;;2.17;;
75189;SDS011;69198;44.694;37.790;2024-03-23T03:31:17;6.95;;;1.90;;
75189;SDS011;69198;44.694;37.790;2024-03-23T03:32:19;7.90;;;1.85;;
75189;SDS011;69198;44.694;37.790;2024-03-23T03:33:20;9.10;;;2.55;;
75189;SDS011;69198;44.694;37.790;2024-03-23T03:34:21;9.80;;;2.72;;
75189;SDS011;69198;44.694;37.790;2024-03-23T03:35:22;9.25;;;2.38;;
75189;SDS011;69198;44.694;37.790;2024-03-23T03:36:26;10.53;;;2.43;;
75189;SDS011;69198;44.694;37.790;2024-03-23T03:37:27;8.93;;;2.38;;
75189;SDS011;69198;44.694;37.790;2024-03-23T03:38:28;9.02;;;2.72;;
75189;SDS011;69198;44.694;37.790;2024-03-23T03:39:29;10.65;;;2.72;;
75189;SDS011;69198;44.694;37.790;2024-03-23T03:40:31;8.85;;;2.22;;
75189;SDS011;69198;44.694;37.790;2024-03-23T03:41:32;7.65;;;2.03;;
75189;SDS011;69198;44.694;37.790;2024-03-23T03:42:33;9.98;;;2.58;;
75189;SDS011;69198;44.694;37.790;2024-03-23T03:43:34;8.90;;;2.63;;
75189;SDS011;69198;44.694;37.790;2024-03-23T03:44:38;10.70;;;2.38;;
75189;SDS011;69198;44.694;37.790;2024-03-23T03:45:40;11.13;;;2.50;;
75189;SDS011;69198;44.694;37.790;2024-03-23T03:46:41;8.80;;;2.30;;
75189;SDS011;69198;44.694;37.790;2024-03-23T03:47:42;10.52;;;2.67;;
75189;SDS011;69198;44.694;37.790;2024-03-23T03:48:43;11.07;;;2.92;;
75189;SDS011;69198;44.694;37.790;2024-03-23T03:49:47;8.32;;;2.40;;
75189;SDS011;69198;44.694;37.790;2024-03-23T03:50:48;9.35;;;2.75;;
75189;SDS011;69198;44.694;37.790;2024-03-23T03:51:49;9.32;;;2.25;;
75189;SDS011;69198;44.694;37.790;2024-03-23T03:52:50;11.75;;;2.70;;
75189;SDS011;69198;44.694;37.790;2024-03-23T03:53:51;8.40;;;2.40;;
75189;SDS011;69198;44.694;37.790;2024-03-23T03:54:55;9.52;;;2.50;;
75189;SDS011;69198;44.694;37.790;2024-03-23T03:56:02;8.20;;;2.50;;
75189;SDS011;69198;44.694;37.790;2024-03-23T03:57:04;9.68;;;2.22;;
75189;SDS011;69198;44.694;37.790;2024-03-23T03:58:06;7.85;;;2.17;;
75189;SDS011;69198;44.694;37.790;2024-03-23T03:59:07;9.55;;;2.42;;
75189;SDS011;69198;44.694;37.790;2024-03-23T04:00:09;10.02;;;2.75;;
75189;SDS011;69198;44.694;37.790;2024-03-23T04:01:14;8.13;;;2.38;;
75189;SDS011;69198;44.694;37.790;2024-03-23T04:02:15;7.90;;;2.43;;
75189;SDS011;69198;44.694;37.790;2024-03-23T04:03:16;9.20;;;2.15;;
75189;SDS011;69198;44.694;37.790;2024-03-23T04:04:17;10.20;;;2.35;;
75189;SDS011;69198;44.694;37.790;2024-03-23T04:05:18;9.80;;;2.20;;
75189;SDS011;69198;44.694;37.790;2024-03-23T04:06:20;8.68;;;2.60;;
75189;SDS011;69198;44.694;37.790;2024-03-23T04:07:21;7.10;;;2.20;;
75189;SDS011;69198;44.694;37.790;2024-03-23T04:08:25;9.95;;;2.55;;
75189;SDS011;69198;44.694;37.790;2024-03-23T04:09:26;9.98;;;2.33;;
75189;SDS011;69198;44.694;37.790;2024-03-23T04:10:27;9.23;;;2.23;;
75189;SDS011;69198;44.694;37.790;2024-03-23T04:11:28;9.82;;;2.72;;
75189;SDS011;69198;44.694;37.790;2024-03-23T04:12:32;6.68;;;1.70;;
75189;SDS011;69198;44.694;37.790;2024-03-23T04:13:33;8.57;;;2.30;;
75189;SDS011;69198;44.694;37.790;2024-03-23T04:14:34;9.25;;;2.40;;
75189;SDS011;69198;44.694;37.790;2024-03-23T04:15:38;7.53;;;1.75;;
75189;SDS011;69198;44.694;37.790;2024-03-23T04:16:40;8.43;;;2.50;;
75189;SDS011;69198;44.694;37.790;2024-03-23T04:17:41;8.82;;;2.20;;
75189;SDS011;69198;44.694;37.790;2024-03-23T04:18:43;9.07;;;2.38;;
75189;SDS011;69198;44.694;37.790;2024-03-23T04:19:44;8.43;;;2.00;;
75189;SDS011;69198;44.694;37.790;2024-03-23T04:20:45;6.57;;;1.70;;
75189;SDS011;69198;44.694;37.790;2024-03-23T04:21:47;7.80;;;1.60;;
75189;SDS011;69198;44.694;37.790;2024-03-23T04:22:50;7.90;;;1.77;;
75189;SDS011;69198;44.694;37.790;2024-03-23T04:23:51;6.93;;;1.73;;
75189;SDS011;69198;44.694;37.790;2024-03-23T04:24:53;8.13;;;1.90;;
75189;SDS011;69198;44.694;37.790;2024-03-23T04:25:55;7.18;;;1.63;;
75189;SDS011;69198;44.694;37.790;2024-03-23T04:26:56;7.53;;;1.80;;
75189;SDS011;69198;44.694;37.790;2024-03-23T04:27:58;6.72;;;1.40;;
75189;SDS011;69198;44.694;37.790;2024-03-23T04:28:58;7.97;;;1.77;;
75189;SDS011;69198;44.694;37.790;2024-03-23T04:30:02;7.85;;;1.65;;
75189;SDS011;69198;44.694;37.790;2024-03-23T04:31:10;6.60;;;1.73;;
75189;SDS011;69198;44.694;37.790;2024-03-23T04:32:11;7.85;;;1.80;;
75189;SDS011;69198;44.694;37.790;2024-03-23T04:33:12;7.97;;;1.55;;
75189;SDS011;69198;44.694;37.790;2024-03-23T04:34:13;7.10;;;1.73;;
75189;SDS011;69198;44.694;37.790;2024-03-23T04:35:14;7.57;;;1.75;;
75189;SDS011;69198;44.694;37.790;2024-03-23T04:36:15;7.90;;;1.90;;
75189;SDS011;69198;44.694;37.790;2024-03-23T04:37:16;8.65;;;2.08;;
75189;SDS011;69198;44.694;37.790;2024-03-23T04:38:18;6.40;;;1.50;;
75189;SDS011;69198;44.694;37.790;2024-03-23T04:39:19;7.22;;;1.48;;
75189;SDS011;69198;44.694;37.790;2024-03-23T04:40:21;9.38;;;2.20;;
75189;SDS011;69198;44.694;37.790;2024-03-23T04:41:22;7.78;;;1.80;;
75189;SDS011;69198;44.694;37.790;2024-03-23T04:42:23;6.78;;;1.95;;
75189;SDS011;69198;44.694;37.790;2024-03-23T04:43:26;6.72;;;1.60;;
75189;SDS011;69198;44.694;37.790;2024-03-23T04:44:27;8.10;;;1.90;;
75189;SDS011;69198;44.694;37.790;2024-03-23T04:45:28;7.75;;;1.73;;
75189;SDS011;69198;44.694;37.790;2024-03-23T04:46:32;6.50;;;1.77;;
75189;SDS011;69198;44.694;37.790;2024-03-23T04:47:33;6.47;;;1.90;;
75189;SDS011;69198;44.694;37.790;2024-03-23T04:48:37;7.45;;;2.25;;
75189;SDS011;69198;44.694;37.790;2024-03-23T04:49:38;7.28;;;1.85;;
75189;SDS011;69198;44.694;37.790;2024-03-23T04:50:39;7.30;;;1.88;;
75189;SDS011;69198;44.694;37.790;2024-03-23T04:51:42;8.27;;;1.95;;
75189;SDS011;69198;44.694;37.790;2024-03-23T04:52:46;10.23;;;2.10;;
75189;SDS011;69198;44.694;37.790;2024-03-23T04:53:47;7.53;;;2.05;;
75189;SDS011;69198;44.694;37.790;2024-03-23T04:54:48;7.30;;;1.45;;
75189;SDS011;69198;44.694;37.790;2024-03-23T04:55:49;5.88;;;1.35;;
75189;SDS011;69198;44.694;37.790;2024-03-23T04:56:50;6.47;;;1.57;;
75189;SDS011;69198;44.694;37.790;2024-03-23T04:57:51;7.78;;;1.23;;
75189;SDS011;69198;44.694;37.790;2024-03-23T04:58:52;6.25;;;1.40;;
75189;SDS011;69198;44.694;37.790;2024-03-23T04:59:53;6.68;;;1.70;;
75189;SDS011;69198;44.694;37.790;2024-03-23T05:00:57;6.63;;;1.80;;
75189;SDS011;69198;44.694;37.790;2024-03-23T05:01:58;9.30;;;1.30;;
75189;SDS011;69198;44.694;37.790;2024-03-23T05:03:03;6.10;;;1.45;;
75189;SDS011;69198;44.694;37.790;2024-03-23T05:04:04;6.33;;;1.30;;
75189;SDS011;69198;44.694;37.790;2024-03-23T05:05:06;5.78;;;1.52;;
75189;SDS011;69198;44.694;37.790;2024-03-23T05:06:07;5.95;;;1.30;;
75189;SDS011;69198;44.694;37.790;2024-03-23T05:07:08;7.38;;;1.50;;
75189;SDS011;69198;44.694;37.790;2024-03-23T05:08:09;7.20;;;1.50;;
75189;SDS011;69198;44.694;37.790;2024-03-23T05:10:36;6.45;;;1.15;;
75189;SDS011;69198;44.694;37.790;2024-03-23T05:11:40;6.15;;;1.50;;
75189;SDS011;69198;44.694;37.790;2024-03-23T05:12:45;7.10;;;1.52;;
75189;SDS011;69198;44.694;37.790;2024-03-23T05:13:46;7.47;;;1.70;;
75189;SDS011;69198;44.694;37.790;2024-03-23T05:14:47;8.90;;;1.75;;
75189;SDS011;69198;44.694;37.790;2024-03-23T05:15:53;8.63;;;1.73;;
75189;SDS011;69198;44.694;37.790;2024-03-23T05:16:55;8.05;;;1.70;;
75189;SDS011;69198;44.694;37.790;2024-03-23T05:17:56;5.85;;;1.70;;
75189;SDS011;69198;44.694;37.790;2024-03-23T05:18:57;7.65;;;1.58;;
75189;SDS011;69198;44.694;37.790;2024-03-23T05:20:00;7.25;;;1.75;;
75189;SDS011;69198;44.694;37.790;2024-03-23T05:21:01;7.43;;;1.77;;
75189;SDS011;69198;44.694;37.790;2024-03-23T05:22:03;8.13;;;1.60;;
75189;SDS011;69198;44.694;37.790;2024-03-23T05:23:04;6.50;;;1.87;;
75189;SDS011;69198;44.694;37.790;2024-03-23T05:24:05;6.07;;;1.60;;
75189;SDS011;69198;44.694;37.790;2024-03-23T05:25:08;6.20;;;1.60;;
75189;SDS011;69198;44.694;37.790;2024-03-23T05:26:10;10.13;;;1.45;;
75189;SDS011;69198;44.694;37.790;2024-03-23T05:27:11;5.60;;;1.40;;
75189;SDS011;69198;44.694;37.790;2024-03-23T05:28:14;8.20;;;1.73;;
75189;SDS011;69198;44.694;37.790;2024-03-23T05:29:15;8.38;;;1.88;;
75189;SDS011;69198;44.694;37.790;2024-03-23T05:30:20;7.10;;;1.55;;
75189;SDS011;69198;44.694;37.790;2024-03-23T05:31:23;9.85;;;1.70;;
75189;SDS011;69198;44.694;37.790;2024-03-23T05:32:25;8.17;;;1.87;;
75189;SDS011;69198;44.694;37.790;2024-03-23T05:33:26;8.15;;;2.05;;
75189;SDS011;69198;44.694;37.790;2024-03-23T05:34:27;7.82;;;1.60;;
75189;SDS011;69198;44.694;37.790;2024-03-23T05:35:30;9.18;;;2.30;;
75189;SDS011;69198;44.694;37.790;2024-03-23T05:36:32;12.65;;;4.20;;
75189;SDS011;69198;44.694;37.790;2024-03-23T05:37:33;8.98;;;3.08;;
75189;SDS011;69198;44.694;37.790;2024-03-23T05:38:34;8.23;;;2.70;;
75189;SDS011;69198;44.694;37.790;2024-03-23T05:39:37;9.55;;;2.97;;
75189;SDS011;69198;44.694;37.790;2024-03-23T05:40:39;7.75;;;2.42;;
75189;SDS011;69198;44.694;37.790;2024-03-23T05:41:40;7.93;;;2.10;;
75189;SDS011;69198;44.694;37.790;2024-03-23T05:42:42;11.23;;;2.30;;
75189;SDS011;69198;44.694;37.790;2024-03-23T05:43:43;8.75;;;2.22;;
75189;SDS011;69198;44.694;37.790;2024-03-23T05:44:44;8.93;;;2.08;;
75189;SDS011;69198;44.694;37.790;2024-03-23T05:45:45;9.85;;;2.30;;
75189;SDS011;69198;44.694;37.790;2024-03-23T05:46:46;9.68;;;2.63;;
75189;SDS011;69198;44.694;37.790;2024-03-23T05:47:49;10.73;;;2.30;;
75189;SDS011;69198;44.694;37.790;2024-03-23T05:48:51;7.82;;;1.98;;
75189;SDS011;69198;44.694;37.790;2024-03-23T05:50:00;7.45;;;1.85;;
75189;SDS011;69198;44.694;37.790;2024-03-23T05:51:03;7.95;;;1.98;;
75189;SDS011;69198;44.694;37.790;2024-03-23T05:52:04;9.60;;;2.27;;
75189;SDS011;69198;44.694;37.790;2024-03-23T05:53:05;7.03;;;1.88;;
75189;SDS011;69198;44.694;37.790;2024-03-23T05:54:06;9.43;;;2.03;;
75189;SDS011;69198;44.694;37.790;2024-03-23T05:55:07;9.98;;;2.08;;
75189;SDS011;69198;44.694;37.790;2024-03-23T05:56:09;7.60;;;1.83;;
75189;SDS011;69198;44.694;37.790;2024-03-23T05:57:09;8.93;;;1.90;;
75189;SDS011;69198;44.694;37.790;2024-03-23T05:58:12;7.88;;;1.48;;
75189;SDS011;69198;44.694;37.790;2024-03-23T05:59:15;7.40;;;2.17;;
75189;SDS011;69198;44.694;37.790;2024-03-23T06:00:16;7.60;;;1.80;;
75189;SDS011;69198;44.694;37.790;2024-03-23T06:01:17;9.33;;;2.20;;
75189;SDS011;69198;44.694;37.790;2024-03-23T06:02:18;7.00;;;1.60;;
75189;SDS011;69198;44.694;37.790;2024-03-23T06:03:19;8.93;;;1.95;;
75189;SDS011;69198;44.694;37.790;2024-03-23T06:04:21;11.90;;;2.20;;
75189;SDS011;69198;44.694;37.790;2024-03-23T06:05:23;11.18;;;2.28;;
75189;SDS011;69198;44.694;37.790;2024-03-23T06:06:24;8.65;;;1.98;;
75189;SDS011;69198;44.694;37.790;2024-03-23T06:07:25;9.13;;;2.25;;
75189;SDS011;69198;44.694;37.790;2024-03-23T06:08:26;11.20;;;2.25;;
75189;SDS011;69198;44.694;37.790;2024-03-23T06:09:27;8.87;;;2.00;;
75189;SDS011;69198;44.694;37.790;2024-03-23T06:10:28;8.03;;;2.30;;
75189;SDS011;69198;44.694;37.790;2024-03-23T06:11:29;7.45;;;2.22;;
75189;SDS011;69198;44.694;37.790;2024-03-23T06:12:30;7.90;;;2.10;;
75189;SDS011;69198;44.694;37.790;2024-03-23T06:13:31;9.50;;;2.22;;
75189;SDS011;69198;44.694;37.790;2024-03-23T06:14:32;9.80;;;1.95;;
75189;SDS011;69198;44.694;37.790;2024-03-23T06:15:33;7.97;;;2.38;;
75189;SDS011;69198;44.694;37.790;2024-03-23T06:16:38;7.80;;;2.28;;
75189;SDS011;69198;44.694;37.790;2024-03-23T06:17:39;9.35;;;2.05;;
75189;SDS011;69198;44.694;37.790;2024-03-23T06:18:40;9.57;;;2.37;;
75189;SDS011;69198;44.694;37.790;2024-03-23T06:19:41;12.23;;;1.80;;
75189;SDS011;69198;44.694;37.790;2024-03-23T06:20:42;9.30;;;2.75;;
75189;SDS011;69198;44.694;37.790;2024-03-23T06:21:43;10.07;;;2.45;;
75189;SDS011;69198;44.694;37.790;2024-03-23T06:22:45;8.15;;;2.08;;
75189;SDS011;69198;44.694;37.790;2024-03-23T06:23:46;7.88;;;2.05;;
75189;SDS011;69198;44.694;37.790;2024-03-23T06:24:53;10.82;;;2.40;;
75189;SDS011;69198;44.694;37.790;2024-03-23T06:25:54;8.10;;;2.05;;
75189;SDS011;69198;44.694;37.790;2024-03-23T06:26:55;7.93;;;1.70;;
75189;SDS011;69198;44.694;37.790;2024-03-23T06:27:56;7.40;;;2.13;;
75189;SDS011;69198;44.694;37.790;2024-03-23T06:28:58;7.88;;;2.10;;
75189;SDS011;69198;44.694;37.790;2024-03-23T06:29:59;8.60;;;2.15;;
75189;SDS011;69198;44.694;37.790;2024-03-23T06:31:01;8.38;;;1.98;;
75189;SDS011;69198;44.694;37.790;2024-03-23T06:32:02;10.45;;;2.42;;
75189;SDS011;69198;44.694;37.790;2024-03-23T06:33:04;8.05;;;1.80;;
75189;SDS011;69198;44.694;37.790;2024-03-23T06:34:06;7.55;;;2.25;;
75189;SDS011;69198;44.694;37.790;2024-03-23T06:35:07;8.85;;;2.13;;
75189;SDS011;69198;44.694;37.790;2024-03-23T06:36:10;8.40;;;2.50;;
75189;SDS011;69198;44.694;37.790;2024-03-23T06:37:11;9.50;;;2.60;;
75189;SDS011;69198;44.694;37.790;2024-03-23T06:38:12;9.82;;;2.63;;
75189;SDS011;69198;44.694;37.790;2024-03-23T06:39:14;8.15;;;2.20;;
75189;SDS011;69198;44.694;37.790;2024-03-23T06:40:17;8.90;;;2.15;;
75189;SDS011;69198;44.694;37.790;2024-03-23T06:41:18;9.57;;;2.33;;
75189;SDS011;69198;44.694;37.790;2024-03-23T06:42:22;8.63;;;2.33;;
75189;SDS011;69198;44.694;37.790;2024-03-23T06:43:23;8.23;;;2.30;;
75189;SDS011;69198;44.694;37.790;2024-03-23T06:44:25;8.00;;;2.25;;
75189;SDS011;69198;44.694;37.790;2024-03-23T06:45:26;8.00;;;2.05;;
75189;SDS011;69198;44.694;37.790;2024-03-23T06:46:27;10.20;;;2.50;;
75189;SDS011;69198;44.694;37.790;2024-03-23T06:47:28;8.25;;;2.08;;
75189;SDS011;69198;44.694;37.790;2024-03-23T06:48:29;8.05;;;2.10;;
75189;SDS011;69198;44.694;37.790;2024-03-23T06:49:30;8.48;;;2.10;;
75189;SDS011;69198;44.694;37.790;2024-03-23T06:50:31;10.73;;;2.95;;
75189;SDS011;69198;44.694;37.790;2024-03-23T06:51:32;8.80;;;2.13;;
75189;SDS011;69198;44.694;37.790;2024-03-23T06:52:33;9.15;;;2.35;;
75189;SDS011;69198;44.694;37.790;2024-03-23T06:53:34;8.57;;;2.50;;
75189;SDS011;69198;44.694;37.790;2024-03-23T06:54:35;9.85;;;2.67;;
75189;SDS011;69198;44.694;37.790;2024-03-23T06:55:36;9.60;;;3.28;;
75189;SDS011;69198;44.694;37.790;2024-03-23T06:56:37;10.63;;;2.58;;
75189;SDS011;69198;44.694;37.790;2024-03-23T06:57:38;9.38;;;2.83;;
75189;SDS011;69198;44.694;37.790;2024-03-23T06:58:39;10.13;;;2.95;;
75189;SDS011;69198;44.694;37.790;2024-03-23T06:59:40;10.25;;;2.92;;
75189;SDS011;69198;44.694;37.790;2024-03-23T07:00:47;11.10;;;2.70;;
75189;SDS011;69198;44.694;37.790;2024-03-23T07:01:49;10.32;;;2.50;;